Time;durP1;ratioP1;P1;durP2;ratioP2;P2;SDS_P1;SDS_P2;PMS_P1;PMS_P2;Temp;Humidity;BMP_temperature;BMP_pressure;BME280_temperature;BME280_humidity;BME280_pressure;Samples;Min_cycle;Max_cycle;Signal;HPM_P1;HPM_P2
2021/03/17 00:00:37;;;;;;;8.32;5.10;;;4.70;80.00;;;;;;5072786;28;20052;-70
2021/03/17 00:03:03;;;;;;;8.45;5.47;;;4.70;80.20;;;;;;5088269;28;20043;-69
2021/03/17 00:05:30;;;;;;;11.10;5.63;;;4.80;80.20;;;;;;5072791;28;20443;-71
2021/03/17 00:07:56;;;;;;;13.15;5.93;;;4.70;80.40;;;;;;5088207;28;20082;-69
2021/03/17 00:10:23;;;;;;;9.38;5.88;;;4.80;81.00;;;;;;5087928;28;20024;-71
2021/03/17 00:12:51;;;;;;;6.15;4.05;;;4.80;80.60;;;;;;5072682;28;20028;-72
2021/03/17 00:15:20;;;;;;;8.13;5.00;;;4.70;79.90;;;;;;5088216;28;20036;-70
2021/03/17 00:17:46;;;;;;;10.85;5.30;;;4.70;80.40;;;;;;5072483;28;20029;-70
2021/03/17 00:20:12;;;;;;;7.47;4.43;;;4.70;81.20;;;;;;5088168;28;20496;-72
2021/03/17 00:22:38;;;;;;;10.80;5.40;;;4.60;81.20;;;;;;5087998;28;20543;-70
2021/03/17 00:25:05;;;;;;;6.50;4.88;;;4.60;81.20;;;;;;5088124;28;20025;-72
2021/03/17 00:27:31;;;;;;;8.38;5.32;;;4.60;81.50;;;;;;5072561;28;20052;-71
2021/03/17 00:29:57;;;;;;;6.65;5.07;;;4.60;81.30;;;;;;5088003;28;20024;-68
2021/03/17 00:32:23;;;;;;;9.98;5.38;;;4.50;81.80;;;;;;5072304;28;20522;-72
2021/03/17 00:34:49;;;;;;;9.35;5.63;;;4.50;82.00;;;;;;5072572;28;20051;-74
2021/03/17 00:37:14;;;;;;;6.45;4.85;;;4.50;83.00;;;;;;5072476;28;20103;-72
2021/03/17 00:39:40;;;;;;;9.73;5.18;;;4.50;82.50;;;;;;5072419;28;20083;-73
2021/03/17 00:42:06;;;;;;;8.45;5.05;;;4.50;82.80;;;;;;5072533;28;20392;-72
2021/03/17 00:44:32;;;;;;;9.65;4.75;;;4.50;82.70;;;;;;5072383;28;20029;-73
2021/03/17 00:46:58;;;;;;;7.82;4.53;;;4.60;82.00;;;;;;5087909;28;20029;-69
2021/03/17 00:49:23;;;;;;;5.88;4.40;;;4.60;81.50;;;;;;5072352;28;20507;-70
2021/03/17 00:51:49;;;;;;;4.97;4.18;;;4.60;80.90;;;;;;5087847;28;20032;-72
2021/03/17 00:54:15;;;;;;;6.40;4.40;;;4.60;81.50;;;;;;5072306;28;20086;-70
2021/03/17 00:56:41;;;;;;;7.78;4.50;;;4.60;81.00;;;;;;5072319;28;20021;-70
2021/03/17 00:59:07;;;;;;;8.05;5.20;;;4.60;81.70;;;;;;5091416;28;20362;-70
2021/03/17 01:01:33;;;;;;;8.82;4.38;;;4.60;81.70;;;;;;5075700;28;20029;-73
2021/03/17 01:03:59;;;;;;;7.00;4.47;;;4.60;82.00;;;;;;5075773;28;20028;-72
2021/03/17 01:06:25;;;;;;;7.82;4.60;;;4.60;82.00;;;;;;5075759;28;20077;-71
2021/03/17 01:08:50;;;;;;;7.40;4.28;;;4.50;81.50;;;;;;5075947;28;20044;-70
2021/03/17 01:11:16;;;;;;;5.03;3.80;;;4.50;81.70;;;;;;5075666;28;20100;-70
2021/03/17 01:13:42;;;;;;;7.97;4.68;;;4.50;80.80;;;;;;5075586;28;20024;-70
2021/03/17 01:16:08;;;;;;;8.68;4.65;;;4.60;80.60;;;;;;5075652;28;20032;-69
2021/03/17 01:18:34;;;;;;;6.07;4.03;;;4.60;81.00;;;;;;5091130;28;20350;-69
2021/03/17 01:21:00;;;;;;;7.45;4.65;;;4.60;81.30;;;;;;5075484;28;20095;-71
2021/03/17 01:23:26;;;;;;;6.95;4.65;;;4.60;81.70;;;;;;5075375;28;20036;-70
2021/03/17 01:25:52;;;;;;;7.88;4.85;;;4.50;81.10;;;;;;5074118;28;20037;-71
2021/03/17 01:28:18;;;;;;;7.75;4.43;;;4.50;80.70;;;;;;5075373;28;20496;-70
2021/03/17 01:30:47;;;;;;;5.95;4.40;;;4.60;81.50;;;;;;5090764;28;20036;-71
2021/03/17 01:33:14;;;;;;;6.22;4.70;;;4.60;81.00;;;;;;5074881;28;20053;-71
2021/03/17 01:35:45;;;;;;;6.82;4.00;;;4.60;81.50;;;;;;5075409;28;20103;-70
2021/03/17 01:38:12;;;;;;;10.68;4.72;;;4.60;81.10;;;;;;5075251;28;20028;-69
2021/03/17 01:40:39;;;;;;;5.00;4.10;;;4.70;81.30;;;;;;5075197;28;20024;-71
2021/03/17 01:43:06;;;;;;;6.88;5.15;;;4.60;80.60;;;;;;5075080;28;20039;-71
2021/03/17 01:45:32;;;;;;;6.32;4.90;;;4.60;80.90;;;;;;5090554;28;20020;-72
2021/03/17 01:47:58;;;;;;;4.80;4.30;;;4.70;80.80;;;;;;5090165;28;20027;-70
2021/03/17 01:50:27;;;;;;;5.70;4.40;;;4.70;81.00;;;;;;5074860;28;20032;-71
2021/03/17 01:52:55;;;;;;;5.82;4.50;;;4.70;80.70;;;;;;5074820;28;20107;-73
2021/03/17 01:55:22;;;;;;;7.95;5.00;;;4.70;80.30;;;;;;5074802;28;20027;-71
2021/03/17 01:57:47;;;;;;;7.50;5.15;;;4.70;79.90;;;;;;5075001;28;20021;-70
2021/03/17 02:00:17;;;;;;;6.20;4.13;;;4.70;80.60;;;;;;5090345;28;20449;-70
2021/03/17 02:02:51;;;;;;;6.70;3.92;;;4.60;80.40;;;;;;5074547;28;20047;-71
2021/03/17 02:05:19;;;;;;;8.02;4.68;;;4.70;80.40;;;;;;5090276;28;20090;-72
2021/03/17 02:07:45;;;;;;;5.72;4.00;;;4.60;80.90;;;;;;5089239;28;20028;-71
2021/03/17 02:10:14;;;;;;;6.93;4.72;;;4.60;80.70;;;;;;5090077;28;20055;-71
2021/03/17 02:13:14;;;;;;;8.88;4.30;;;4.60;81.00;;;;;;5090049;28;20119;-71
2021/03/17 02:16:07;;;;;;;8.63;4.57;;;4.60;81.70;;;;;;5073073;28;20021;-72
2021/03/17 02:19:05;;;;;;;14.85;5.85;;;4.60;82.10;;;;;;5074408;28;20350;-72
2021/03/17 02:21:55;;;;;;;11.90;5.93;;;4.50;83.30;;;;;;5074279;28;20233;-71
2021/03/17 02:24:49;;;;;;;8.75;6.00;;;4.40;84.10;;;;;;5073939;28;20377;-70
2021/03/17 02:27:23;;;;;;;9.93;6.20;;;4.40;83.50;;;;;;5074234;28;20013;-72
2021/03/17 02:30:22;;;;;;;7.95;4.97;;;4.40;84.10;;;;;;5074058;28;20032;-71
2021/03/17 02:33:07;;;;;;;11.80;6.00;;;4.30;84.70;;;;;;5073617;28;20445;-71
2021/03/17 02:35:35;;;;;;;10.05;5.90;;;4.30;85.60;;;;;;5073675;28;20028;-69
2021/03/17 02:38:05;;;;;;;9.10;6.10;;;4.30;85.10;;;;;;5089530;28;20469;-70
2021/03/17 02:40:34;;;;;;;11.85;6.53;;;4.20;85.50;;;;;;5073857;28;20030;-69
2021/03/17 02:43:12;;;;;;;13.80;6.90;;;4.20;85.70;;;;;;5073799;28;20037;-69
2021/03/17 02:45:42;;;;;;;9.33;6.27;;;4.20;87.00;;;;;;5089503;28;20420;-69
2021/03/17 02:48:23;;;;;;;10.93;6.50;;;4.20;86.90;;;;;;5089347;28;20035;-70
2021/03/17 02:50:53;;;;;;;10.43;6.53;;;4.10;86.60;;;;;;5073782;28;20130;-69
2021/03/17 02:53:22;;;;;;;9.95;6.75;;;4.10;87.20;;;;;;5072345;28;20043;-69
2021/03/17 02:55:52;;;;;;;11.48;6.65;;;4.00;87.70;;;;;;5089292;28;20031;-68
2021/03/17 02:58:18;;;;;;;10.50;6.35;;;4.00;87.40;;;;;;5089149;28;20431;-71
2021/03/17 03:00:46;;;;;;;11.33;6.17;;;4.00;87.80;;;;;;5073591;28;20024;-71
2021/03/17 03:03:14;;;;;;;14.17;7.43;;;4.00;87.90;;;;;;5073561;28;20496;-70
2021/03/17 03:05:40;;;;;;;10.60;7.13;;;3.90;87.90;;;;;;5073575;28;20440;-69
2021/03/17 03:08:09;;;;;;;13.00;8.27;;;3.90;88.90;;;;;;5073151;28;20085;-69
2021/03/17 03:10:36;;;;;;;14.63;7.23;;;3.90;88.40;;;;;;5073650;28;20032;-68
2021/03/17 03:13:04;;;;;;;11.93;7.67;;;3.90;88.40;;;;;;5072036;28;20028;-67
2021/03/17 03:15:32;;;;;;;12.97;8.77;;;3.90;88.90;;;;;;5088923;28;20029;-67
2021/03/17 03:18:02;;;;;;;10.95;6.70;;;3.80;88.80;;;;;;5088880;28;20031;-68
2021/03/17 03:20:32;;;;;;;10.15;7.18;;;3.80;88.70;;;;;;5072868;28;20024;-68
2021/03/17 03:22:59;;;;;;;13.17;6.70;;;3.80;88.90;;;;;;5073176;28;20086;-66
2021/03/17 03:25:26;;;;;;;9.13;5.88;;;3.70;89.50;;;;;;5073258;28;20046;-69
2021/03/17 03:27:54;;;;;;;11.23;6.90;;;3.70;90.00;;;;;;5088747;28;20025;-68
2021/03/17 03:30:26;;;;;;;11.63;6.60;;;3.70;89.20;;;;;;5071886;28;20052;-68
2021/03/17 03:32:53;;;;;;;13.50;7.00;;;3.70;89.70;;;;;;5072816;28;20048;-69
2021/03/17 03:35:22;;;;;;;10.55;6.82;;;3.60;89.30;;;;;;5073124;28;20414;-69
2021/03/17 03:37:48;;;;;;;10.37;6.63;;;3.60;89.90;;;;;;5073095;28;20036;-70
2021/03/17 03:40:18;;;;;;;9.95;6.65;;;3.60;89.90;;;;;;5088580;28;20021;-70
2021/03/17 03:42:44;;;;;;;14.02;7.63;;;3.60;90.40;;;;;;5088377;28;20036;-69
2021/03/17 03:45:14;;;;;;;10.17;6.20;;;3.50;89.90;;;;;;5088508;28;20032;-69
2021/03/17 03:47:41;;;;;;;9.97;6.33;;;3.60;89.90;;;;;;5073241;28;20111;-70
2021/03/17 03:50:09;;;;;;;12.77;6.93;;;3.60;89.70;;;;;;5092813;28;20040;-70
2021/03/17 03:52:48;;;;;;;9.50;6.23;;;3.70;89.40;;;;;;5076984;28;20085;-69
2021/03/17 03:55:23;;;;;;;11.33;7.00;;;3.70;89.50;;;;;;5076349;28;20040;-69
2021/03/17 03:57:51;;;;;;;7.35;5.60;;;3.70;89.70;;;;;;5077292;28;20025;-71
2021/03/17 04:00:21;;;;;;;8.90;6.00;;;3.70;89.10;;;;;;5091770;28;20043;-70
2021/03/17 04:02:50;;;;;;;8.93;5.77;;;3.70;88.60;;;;;;5074486;28;20526;-70
2021/03/17 04:05:28;;;;;;;8.70;6.40;;;3.70;88.40;;;;;;5071512;28;20419;-71
2021/03/17 04:07:56;;;;;;;11.73;5.60;;;3.70;88.00;;;;;;5071495;28;20024;-70
2021/03/17 04:10:23;;;;;;;8.90;6.67;;;3.70;88.60;;;;;;5072753;28;20025;-69
2021/03/17 04:12:54;;;;;;;7.70;4.88;;;3.80;88.50;;;;;;5072708;28;20036;-68
2021/03/17 04:15:21;;;;;;;11.47;6.27;;;3.70;88.20;;;;;;5072761;28;20067;-69
2021/03/17 04:18:01;;;;;;;8.53;5.80;;;3.80;88.30;;;;;;5072779;28;20029;-70
2021/03/17 04:20:31;;;;;;;11.80;6.07;;;3.80;88.50;;;;;;5072705;28;20017;-70
2021/03/17 04:22:58;;;;;;;13.73;6.37;;;3.80;88.50;;;;;;5088082;28;20032;-71
2021/03/17 04:25:26;;;;;;;11.13;6.80;;;3.80;88.20;;;;;;5072862;28;20124;-69
2021/03/17 04:27:54;;;;;;;10.32;5.97;;;3.70;88.90;;;;;;5072884;28;20434;-69
2021/03/17 04:30:21;;;;;;;10.03;6.23;;;3.70;88.60;;;;;;5088126;28;20069;-71
2021/03/17 04:32:49;;;;;;;9.80;6.30;;;3.80;88.80;;;;;;5091048;28;20094;-71
2021/03/17 04:35:17;;;;;;;10.20;6.30;;;3.70;88.40;;;;;;5076618;28;20021;-70
2021/03/17 04:37:44;;;;;;;11.67;6.97;;;3.70;88.50;;;;;;5091900;28;20094;-69
2021/03/17 04:40:12;;;;;;;10.20;6.73;;;3.70;88.40;;;;;;5091790;28;20031;-69
2021/03/17 04:42:43;;;;;;;10.77;6.03;;;3.70;88.30;;;;;;5075855;28;20123;-66
2021/03/17 04:45:11;;;;;;;14.37;6.70;;;3.70;87.80;;;;;;5091504;28;20025;-67
2021/03/17 04:47:44;;;;;;;8.57;6.40;;;3.70;88.00;;;;;;5075766;28;20031;-68
2021/03/17 04:50:20;;;;;;;9.77;5.67;;;3.80;88.70;;;;;;5074755;28;20082;-70
2021/03/17 04:52:46;;;;;;;24.23;6.50;;;3.70;87.80;;;;;;5076010;28;20025;-71
2021/03/17 04:55:14;;;;;;;11.60;6.03;;;3.80;87.90;;;;;;5075974;28;20048;-70
2021/03/17 04:57:41;;;;;;;11.10;6.53;;;3.70;88.00;;;;;;5091749;28;20051;-71
2021/03/17 05:00:16;;;;;;;12.57;7.30;;;3.70;88.60;;;;;;5091460;28;20027;-70
2021/03/17 05:03:08;;;;;;;10.80;6.20;;;3.80;88.00;;;;;;5075755;28;20024;-69
2021/03/17 05:05:35;;;;;;;11.67;6.23;;;3.70;88.90;;;;;;5075036;28;20032;-69
2021/03/17 05:08:05;;;;;;;13.17;7.47;;;3.70;88.40;;;;;;5074535;28;20033;-71
2021/03/17 05:10:32;;;;;;;11.17;6.80;;;3.70;88.90;;;;;;5075736;28;20051;-72
2021/03/17 05:12:58;;;;;;;10.80;6.60;;;3.70;88.60;;;;;;5091205;28;20476;-71
2021/03/17 05:15:25;;;;;;;12.83;7.30;;;3.70;89.30;;;;;;5075582;28;20074;-70
2021/03/17 05:17:52;;;;;;;10.40;6.97;;;3.70;89.30;;;;;;5075347;28;20099;-71
2021/03/17 05:20:22;;;;;;;10.87;6.60;;;3.70;89.50;;;;;;5075199;28;20404;-69
2021/03/17 05:22:49;;;;;;;16.97;8.87;;;3.70;88.80;;;;;;5075399;28;20032;-71
2021/03/17 05:25:18;;;;;;;15.83;8.70;;;3.70;89.30;;;;;;5075423;28;20028;-70
2021/03/17 05:27:46;;;;;;;13.43;8.52;;;3.70;89.20;;;;;;5075404;28;20025;-69
2021/03/17 05:30:14;;;;;;;11.50;6.83;;;3.80;88.90;;;;;;5075348;28;20376;-70
2021/03/17 05:32:40;;;;;;;14.00;8.20;;;3.70;88.50;;;;;;5075015;28;20083;-71
2021/03/17 05:35:09;;;;;;;21.03;9.50;;;3.70;89.10;;;;;;5075071;28;20032;-70
2021/03/17 05:37:36;;;;;;;24.58;10.60;;;3.70;88.70;;;;;;5075167;28;20021;-71
2021/03/17 05:40:05;;;;;;;12.90;7.70;;;3.70;89.30;;;;;;5075015;28;20041;-71
2021/03/17 05:42:31;;;;;;;10.90;6.82;;;3.70;89.00;;;;;;5074430;28;20028;-70
2021/03/17 05:45:00;;;;;;;12.30;8.40;;;3.70;88.40;;;;;;5074696;28;20031;-69
2021/03/17 05:47:26;;;;;;;14.00;8.87;;;3.70;88.90;;;;;;5074978;28;20457;-70
2021/03/17 05:49:52;;;;;;;17.40;8.77;;;3.70;89.60;;;;;;5073542;28;20036;-69
2021/03/17 05:52:19;;;;;;;19.23;9.47;;;3.70;88.80;;;;;;5090447;28;20033;-71
2021/03/17 05:54:46;;;;;;;14.97;8.93;;;3.80;90.00;;;;;;5074520;28;20384;-69
2021/03/17 05:57:13;;;;;;;21.07;11.60;;;3.80;89.40;;;;;;5090448;28;20480;-68
2021/03/17 05:59:39;;;;;;;20.60;10.30;;;3.70;89.60;;;;;;5075030;28;20484;-69
2021/03/17 06:02:07;;;;;;;13.63;8.90;;;3.70;89.50;;;;;;5074658;28;20032;-70
2021/03/17 06:04:37;;;;;;;24.13;11.67;;;3.70;89.90;;;;;;5090200;28;20029;-71
2021/03/17 06:07:06;;;;;;;16.10;9.67;;;3.80;89.80;;;;;;5074633;28;20024;-70
2021/03/17 06:09:33;;;;;;;20.47;10.37;;;3.80;90.00;;;;;;5073463;28;20406;-69
2021/03/17 06:12:00;;;;;;;19.58;8.93;;;3.80;89.50;;;;;;5089769;28;20064;-71
2021/03/17 06:14:30;;;;;;;21.10;9.67;;;3.80;88.80;;;;;;5074420;28;20032;-69
2021/03/17 06:17:03;;;;;;;18.57;9.20;;;3.80;89.70;;;;;;5074351;28;20025;-71
2021/03/17 06:19:32;;;;;;;24.00;9.57;;;3.90;88.90;;;;;;5074329;28;20020;-68
2021/03/17 06:21:59;;;;;;;18.97;9.47;;;3.90;88.90;;;;;;5074144;28;20032;-70
2021/03/17 06:24:27;;;;;;;17.63;9.43;;;3.90;89.20;;;;;;5074275;28;20024;-70
2021/03/17 06:26:54;;;;;;;19.73;9.50;;;3.90;89.50;;;;;;5089703;28;20060;-70
2021/03/17 06:29:20;;;;;;;23.57;11.77;;;4.00;89.20;;;;;;5074171;28;20040;-71
2021/03/17 06:31:48;;;;;;;22.80;10.93;;;4.10;88.70;;;;;;5074062;28;20028;-70
2021/03/17 06:34:14;;;;;;;75.23;27.13;;;4.10;88.90;;;;;;5073475;28;20055;-71
2021/03/17 06:36:51;;;;;;;22.60;14.33;;;4.20;89.80;;;;;;5072449;28;20035;-71
2021/03/17 06:39:20;;;;;;;26.33;16.30;;;4.30;88.50;;;;;;5073681;28;20024;-70
2021/03/17 06:41:52;;;;;;;17.73;11.13;;;4.40;88.50;;;;;;5073764;28;20021;-69
2021/03/17 06:44:22;;;;;;;17.27;9.43;;;4.50;86.30;;;;;;5073865;28;20461;-69
2021/03/17 06:47:13;;;;;;;15.23;10.02;;;4.50;86.80;;;;;;5073437;28;20028;-71
2021/03/17 06:49:41;;;;;;;17.75;11.27;;;4.60;86.80;;;;;;5089243;28;20017;-70
2021/03/17 06:55:29;;;;;;;14.82;9.23;;;4.60;86.50;;;;;;5073636;28;20039;-70
2021/03/17 06:57:55;;;;;;;15.88;10.77;;;4.60;86.10;;;;;;5073540;28;20029;-70
2021/03/17 07:00:31;;;;;;;16.67;9.43;;;4.60;85.80;;;;;;5089104;28;20059;-74
2021/03/17 07:03:11;;;;;;;14.68;9.20;;;4.70;86.40;;;;;;5072982;28;20079;-71
2021/03/17 07:05:42;;;;;;;12.48;8.35;;;4.80;86.50;;;;;;5070624;28;20047;-70
2021/03/17 07:08:13;;;;;;;13.80;9.10;;;4.80;85.30;;;;;;5068156;28;20048;-72
2021/03/17 07:10:44;;;;;;;13.30;8.23;;;4.80;84.90;;;;;;5072121;28;20437;-72
2021/03/17 07:13:13;;;;;;;24.55;8.50;;;4.80;85.20;;;;;;5069011;28;20029;-69
2021/03/17 07:15:40;;;;;;;13.98;8.80;;;4.80;85.90;;;;;;5065726;28;20036;-67
2021/03/17 07:18:23;;;;;;;18.98;11.15;;;4.80;85.60;;;;;;5068929;28;20028;-71
2021/03/17 07:20:57;;;;;;;35.85;22.30;;;4.90;86.30;;;;;;5073310;28;20028;-72
2021/03/17 07:23:36;;;;;;;17.02;10.10;;;4.80;85.70;;;;;;5073147;28;20545;-74
2021/03/17 07:26:04;;;;;;;19.20;12.90;;;4.90;86.00;;;;;;5082621;28;20376;-73
2021/03/17 07:28:51;;;;;;;12.93;8.88;;;4.90;86.40;;;;;;5093343;28;20028;-72
2021/03/17 07:31:38;;;;;;;17.50;10.40;;;4.80;85.60;;;;;;5092962;28;20030;-73
2021/03/17 07:34:20;;;;;;;16.90;10.10;;;4.80;85.70;;;;;;5065591;28;20094;-73
2021/03/17 07:36:48;;;;;;;11.93;8.90;;;4.80;85.70;;;;;;5062848;28;20098;-74
2021/03/17 07:39:31;;;;;;;13.10;8.65;;;4.80;86.90;;;;;;5059835;28;20071;-71
2021/03/17 07:41:59;;;;;;;14.02;9.10;;;4.80;85.90;;;;;;5060075;28;20013;-73
2021/03/17 07:44:26;;;;;;;19.55;11.15;;;4.70;86.60;;;;;;5062566;28;20033;-73
2021/03/17 07:46:55;;;;;;;13.85;9.07;;;4.70;86.30;;;;;;5078936;28;20033;-71
2021/03/17 07:49:23;;;;;;;16.65;10.25;;;4.70;86.70;;;;;;5062001;28;20021;-73
2021/03/17 07:51:59;;;;;;;16.05;12.02;;;4.70;87.80;;;;;;5061817;28;20029;-71
2021/03/17 07:54:36;;;;;;;18.02;10.63;;;4.70;87.40;;;;;;5062442;28;20045;-73
2021/03/17 07:57:07;;;;;;;18.30;11.27;;;4.70;87.50;;;;;;5070739;28;20380;-73
2021/03/17 07:59:36;;;;;;;33.97;15.43;;;4.70;86.50;;;;;;5072876;28;20052;-72
2021/03/17 08:02:02;;;;;;;27.27;14.32;;;4.80;86.80;;;;;;5087874;28;20047;-69
2021/03/17 08:04:33;;;;;;;24.98;13.13;;;4.80;87.20;;;;;;5065874;28;20040;-67
2021/03/17 08:06:59;;;;;;;20.98;11.77;;;4.80;86.80;;;;;;5074671;28;20031;-76
2021/03/17 08:09:25;;;;;;;50.08;24.35;;;4.80;87.40;;;;;;5075547;28;20024;-72
2021/03/17 08:11:58;;;;;;;35.08;18.90;;;4.80;88.10;;;;;;5076459;28;20580;-76
2021/03/17 08:14:25;;;;;;;24.70;12.15;;;4.90;88.30;;;;;;5073226;28;20032;-67
2021/03/17 08:16:52;;;;;;;29.50;15.40;;;4.80;86.00;;;;;;5076259;28;20024;-69
2021/03/17 08:19:25;;;;;;;22.27;13.02;;;4.90;86.20;;;;;;5075167;28;20098;-73
2021/03/17 08:21:53;;;;;;;16.23;11.38;;;5.00;86.70;;;;;;5076461;28;20103;-70
2021/03/17 08:24:32;;;;;;;15.55;10.13;;;5.10;86.90;;;;;;5076505;28;20033;-72
2021/03/17 08:26:59;;;;;;;19.55;12.25;;;5.30;85.90;;;;;;5076449;28;20028;-71
2021/03/17 08:29:46;;;;;;;22.58;13.65;;;5.50;86.00;;;;;;5076095;28;20031;-73
2021/03/17 08:32:16;;;;;;;22.27;13.10;;;5.60;85.30;;;;;;5075591;28;20051;-75
2021/03/17 08:34:56;;;;;;;21.65;12.07;;;5.70;85.30;;;;;;5075923;28;20116;-73
2021/03/17 08:37:49;;;;;;;21.20;12.95;;;5.80;86.10;;;;;;5074553;28;20043;-72
2021/03/17 08:40:27;;;;;;;30.08;16.75;;;5.70;84.60;;;;;;5091607;28;20028;-72
2021/03/17 08:42:53;;;;;;;19.60;11.50;;;5.70;85.90;;;;;;5074604;28;20040;-72
2021/03/17 08:45:21;;;;;;;21.60;12.10;;;5.70;85.70;;;;;;5075338;28;20037;-70
2021/03/17 08:47:48;;;;;;;14.50;9.43;;;5.80;84.60;;;;;;5073621;28;20021;-71
2021/03/17 08:50:17;;;;;;;17.52;11.00;;;;;;;;;;5091393;28;20025;-73
2021/03/17 08:52:48;;;;;;;17.50;11.70;;;6.20;82.00;;;;;;5075652;28;20033;-74
2021/03/17 08:55:18;;;;;;;17.73;12.13;;;6.30;82.70;;;;;;5074667;28;20473;-74
2021/03/17 08:58:05;;;;;;;23.40;13.13;;;6.30;84.20;;;;;;5074013;28;20472;-72
2021/03/17 09:00:55;;;;;;;19.95;12.02;;;6.20;80.30;;;;;;5075884;28;20048;-73
2021/03/17 09:03:38;;;;;;;21.50;14.38;;;6.30;81.70;;;;;;5075611;28;20037;-71
2021/03/17 09:06:10;;;;;;;22.40;13.60;;;6.30;81.60;;;;;;5074343;28;20029;-69
2021/03/17 09:09:15;;;;;;;18.05;11.18;;;6.50;80.60;;;;;;5068147;28;20428;-68
2021/03/17 09:11:41;;;;;;;23.58;13.85;;;6.50;78.30;;;;;;5058330;28;20068;-73
2021/03/17 09:14:08;;;;;;;21.35;14.02;;;6.50;80.90;;;;;;5055726;28;20123;-69
2021/03/17 09:16:36;;;;;;;22.05;14.45;;;6.70;79.90;;;;;;5055764;28;20025;-72
2021/03/17 09:19:10;;;;;;;20.20;12.40;;;6.80;78.50;;;;;;5052757;28;20068;-71
2021/03/17 09:21:47;;;;;;;18.05;11.20;;;6.90;79.40;;;;;;5054211;28;20451;-68
2021/03/17 09:24:32;;;;;;;19.80;12.52;;;6.90;78.60;;;;;;5055383;28;20437;-71
2021/03/17 09:27:07;;;;;;;17.77;11.90;;;7.00;79.10;;;;;;5054063;28;20029;-72
2021/03/17 09:29:35;;;;;;;22.13;13.68;;;7.10;79.70;;;;;;5055628;28;20036;-73
2021/03/17 09:32:02;;;;;;;15.02;10.60;;;7.30;79.50;;;;;;5063342;28;20033;-73
2021/03/17 09:34:29;;;;;;;15.65;11.13;;;7.40;77.60;;;;;;5055229;28;20037;-70
2021/03/17 09:37:09;;;;;;;15.82;11.50;;;7.20;76.50;;;;;;5069611;28;20029;-71
2021/03/17 09:39:36;;;;;;;15.88;11.23;;;7.30;77.20;;;;;;5090324;28;20024;-69
2021/03/17 09:42:03;;;;;;;110.10;58.45;;;7.20;77.10;;;;;;5090405;28;20115;-70
2021/03/17 09:44:29;;;;;;;18.08;12.50;;;7.20;77.70;;;;;;5090396;28;20182;-72
2021/03/17 09:46:55;;;;;;;17.58;12.68;;;7.20;78.40;;;;;;5074880;28;20527;-72
2021/03/17 09:49:26;;;;;;;19.70;12.60;;;7.20;80.40;;;;;;5074655;28;20361;-71
2021/03/17 09:51:54;;;;;;;19.95;12.98;;;7.60;77.70;;;;;;5074783;28;20362;-72
2021/03/17 09:54:29;;;;;;;20.30;12.15;;;7.80;75.40;;;;;;5074773;28;20111;-73
2021/03/17 09:56:59;;;;;;;17.45;12.15;;;7.70;73.70;;;;;;5090286;28;20115;-72
2021/03/17 09:59:27;;;;;;;20.85;13.38;;;7.90;75.20;;;;;;5074430;28;20036;-72
2021/03/17 10:01:52;;;;;;;24.90;16.20;;;7.80;74.70;;;;;;5073241;28;20028;-71
2021/03/17 10:04:31;;;;;;;18.23;13.35;;;7.80;75.40;;;;;;5074616;28;20540;-73
2021/03/17 10:06:59;;;;;;;24.02;16.83;;;7.60;77.10;;;;;;5073096;28;20025;-74
2021/03/17 10:09:30;;;;;;;33.15;19.85;;;7.80;74.70;;;;;;5074484;28;20064;-72
2021/03/17 10:12:20;;;;;;;19.17;12.90;;;7.90;74.40;;;;;;5074469;28;20525;-70
2021/03/17 10:14:47;;;;;;;16.02;12.55;;;8.10;72.40;;;;;;5068537;28;20045;-71
2021/03/17 10:17:16;;;;;;;15.85;11.23;;;8.50;73.60;;;;;;5072767;28;20025;-71
2021/03/17 10:19:50;;;;;;;20.08;12.63;;;8.30;70.40;;;;;;5072861;28;20125;-70
2021/03/17 10:22:17;;;;;;;30.25;18.35;;;8.40;73.00;;;;;;5089708;28;20519;-70
2021/03/17 10:24:48;;;;;;;20.50;13.57;;;8.40;73.70;;;;;;5074179;28;20048;-73
2021/03/17 10:27:16;;;;;;;18.58;13.00;;;8.50;72.70;;;;;;5073995;28;20027;-71
2021/03/17 10:29:44;;;;;;;16.65;11.32;;;8.70;71.20;;;;;;5073753;28;20090;-69
2021/03/17 10:32:15;;;;;;;18.60;12.45;;;8.90;70.30;;;;;;5089208;28;20496;-70
2021/03/17 10:34:40;;;;;;;19.77;12.82;;;9.00;68.30;;;;;;5073978;28;20028;-70
2021/03/17 10:37:11;;;;;;;15.68;11.02;;;8.80;70.70;;;;;;5089096;28;20443;-71
2021/03/17 10:39:37;;;;;;;15.23;10.80;;;9.10;69.50;;;;;;5073937;28;20064;-71
2021/03/17 10:42:15;;;;;;;19.00;12.45;;;8.80;68.40;;;;;;5073568;28;20426;-73
2021/03/17 10:44:41;;;;;;;16.55;11.18;;;8.60;70.10;;;;;;5073737;28;20451;-69
2021/03/17 10:47:11;;;;;;;20.35;12.98;;;8.40;70.60;;;;;;5073355;28;20056;-71
2021/03/17 10:49:45;;;;;;;19.88;13.35;;;8.20;73.40;;;;;;5073739;28;20063;-71
2021/03/17 10:52:11;;;;;;;17.52;12.07;;;8.20;73.00;;;;;;5089077;28;20457;-69
2021/03/17 10:54:40;;;;;;;21.17;14.07;;;8.20;73.00;;;;;;5073584;28;20028;-69
2021/03/17 10:57:07;;;;;;;23.33;14.38;;;8.00;73.30;;;;;;5073386;28;20060;-68
2021/03/17 10:59:35;;;;;;;21.77;14.27;;;7.80;73.20;;;;;;5071974;28;20034;-69
2021/03/17 11:02:19;;;;;;;28.67;19.13;;;7.80;73.20;;;;;;5066924;28;20033;-72
2021/03/17 11:05:06;;;;;;;20.13;13.35;;;7.90;74.50;;;;;;5072245;28;20024;-72
2021/03/17 11:07:50;;;;;;;21.48;13.80;;;8.00;73.50;;;;;;5065615;28;20066;-68
2021/03/17 11:10:37;;;;;;;22.58;14.90;;;8.30;72.40;;;;;;5073434;28;20029;-69
2021/03/17 11:13:09;;;;;;;23.70;15.10;;;8.90;70.70;;;;;;5070641;28;20033;-70
2021/03/17 11:15:51;;;;;;;;;;;9.60;69.40;;;;;;5072355;28;20028;-68
2021/03/17 11:18:32;;;;;;;;;;;10.80;64.30;;;;;;5073668;28;19904;-70
2021/03/17 11:21:21;;;;;;;31.60;15.15;;;10.20;64.50;;;;;;5072950;28;19911;-71
2021/03/17 11:23:47;;;;;;;23.75;13.75;;;10.00;66.50;;;;;;5072314;28;20048;-69
2021/03/17 11:26:31;;;;;;;19.30;12.55;;;9.30;67.30;;;;;;5073095;28;20369;-70
2021/03/17 11:29:00;;;;;;;26.67;14.38;;;9.50;67.60;;;;;;5073153;28;20024;-70
2021/03/17 11:31:27;;;;;;;21.33;14.07;;;10.30;65.20;;;;;;5069926;28;20029;-69
2021/03/17 11:33:53;;;;;;;24.35;14.55;;;10.30;63.30;;;;;;5053009;28;20063;-70
2021/03/17 11:36:20;;;;;;;23.17;13.70;;;10.10;64.00;;;;;;5052988;28;20504;-69
2021/03/17 11:38:45;;;;;;;43.72;20.05;;;9.90;65.20;;;;;;5053103;28;20040;-69
2021/03/17 11:41:12;;;;;;;22.85;13.88;;;10.40;63.40;;;;;;5051802;28;20028;-70
2021/03/17 11:43:37;;;;;;;28.95;12.75;;;11.10;60.10;;;;;;5055565;28;20036;-67
2021/03/17 11:46:03;;;;;;;17.95;12.73;;;12.80;57.40;;;;;;5061217;28;20029;-69
2021/03/17 11:48:30;;;;;;;18.73;12.25;;;12.70;57.30;;;;;;5064556;28;20055;-70
2021/03/17 11:50:59;;;;;;;18.15;12.68;;;15.10;51.80;;;;;;5073023;28;20040;-67
2021/03/17 11:53:27;;;;;;;18.25;12.65;;;14.00;52.10;;;;;;5064519;28;20093;-71
2021/03/17 11:55:53;;;;;;;21.00;14.20;;;13.90;52.60;;;;;;5062930;28;20083;-68
2021/03/17 11:58:19;;;;;;;17.95;12.02;;;13.80;52.20;;;;;;5062122;28;20020;-69
2021/03/17 12:00:46;;;;;;;16.98;12.85;;;;;;;;;;5068018;28;20377;-69
2021/03/17 12:03:12;;;;;;;17.05;12.48;;;13.70;51.40;;;;;;5070844;28;20121;-69
2021/03/17 12:05:40;;;;;;;20.77;13.43;;;12.40;55.30;;;;;;5071394;28;20431;-70
2021/03/17 12:08:07;;;;;;;21.67;13.50;;;11.00;57.90;;;;;;5072446;28;20027;-68
2021/03/17 12:10:33;;;;;;;17.40;12.20;;;10.60;60.30;;;;;;5072442;28;20024;-68
2021/03/17 12:12:59;;;;;;;19.35;13.63;;;13.50;53.90;;;;;;5071234;28;20033;-69
2021/03/17 12:15:26;;;;;;;18.67;13.18;;;14.40;51.70;;;;;;5072846;28;20021;-70
2021/03/17 12:17:53;;;;;;;24.50;14.30;;;14.00;49.70;;;;;;5072370;28;20063;-68
2021/03/17 12:20:21;;;;;;;25.15;14.52;;;14.40;50.60;;;;;;5072650;28;20028;-68
2021/03/17 12:22:48;;;;;;;22.05;13.52;;;13.80;52.90;;;;;;5072562;28;20040;-69
2021/03/17 12:25:15;;;;;;;18.45;12.85;;;12.50;53.80;;;;;;5072490;28;20107;-69
2021/03/17 12:27:42;;;;;;;19.88;12.55;;;13.30;53.00;;;;;;5072837;28;20056;-70
2021/03/17 12:30:13;;;;;;;18.40;12.00;;;14.00;51.30;;;;;;5071287;28;20025;-69
2021/03/17 12:32:40;;;;;;;;;;;15.00;49.30;;;;;;5071477;28;20048;-69
2021/03/17 12:35:09;;;;;;;15.73;11.43;;;16.00;46.40;;;;;;5072358;28;20394;-70
2021/03/17 12:37:35;;;;;;;17.77;11.85;;;16.90;44.70;;;;;;5070803;28;20171;-69
2021/03/17 12:40:01;;;;;;;16.33;12.07;;;15.90;44.50;;;;;;5072073;28;20464;-71
2021/03/17 12:42:27;;;;;;;16.45;11.27;;;13.70;47.90;;;;;;5072569;28;20024;-70
2021/03/17 12:44:53;;;;;;;23.88;13.30;;;13.20;49.90;;;;;;5072419;28;20029;-71
2021/03/17 12:47:19;;;;;;;21.55;14.25;;;12.30;56.20;;;;;;5072313;28;20025;-68
2021/03/17 12:49:45;;;;;;;19.08;13.05;;;12.20;56.50;;;;;;5072341;28;20480;-68
2021/03/17 12:52:11;;;;;;;20.35;13.75;;;13.40;53.00;;;;;;5073056;28;20035;-69
2021/03/17 12:54:37;;;;;;;19.17;14.00;;;12.00;55.40;;;;;;5074583;28;20145;-69
2021/03/17 12:57:04;;;;;;;27.80;18.55;;;11.10;59.00;;;;;;5091506;28;20139;-67
2021/03/17 12:59:30;;;;;;;26.88;16.38;;;10.70;61.30;;;;;;5075877;28;20025;-71
2021/03/17 13:01:56;;;;;;;23.98;15.80;;;10.30;60.50;;;;;;5075793;28;20020;-69
2021/03/17 13:04:22;;;;;;;19.30;14.00;;;9.90;63.90;;;;;;5075823;28;20040;-72